Time;durP1;ratioP1;P1;durP2;ratioP2;P2;SDS_P1;SDS_P2;PMS_P1;PMS_P2;Temp;Humidity;BMP_temperature;BMP_pressure;BME280_temperature;BME280_humidity;BME280_pressure;Samples;Min_cycle;Max_cycle;Signal;HPM_P1;HPM_P2
2023/04/03 00:01:37;;;;;;;0.43;0.43;;;9.00;78.80;;;;;;5051019;28;20549;-75
2023/04/03 00:04:05;;;;;;;0.50;0.50;;;9.00;78.60;;;;;;5050639;28;20182;-77
2023/04/03 00:06:30;;;;;;;0.67;0.63;;;9.10;78.30;;;;;;5058574;28;20215;-75
2023/04/03 00:08:56;;;;;;;0.60;0.50;;;9.10;77.80;;;;;;5059220;28;20607;-75
2023/04/03 00:11:22;;;;;;;0.60;0.60;;;9.10;78.10;;;;;;5054549;28;20199;-75
2023/04/03 00:13:47;;;;;;;0.47;0.47;;;9.10;78.30;;;;;;5051334;28;20183;-77
2023/04/03 00:16:13;;;;;;;0.50;0.50;;;9.10;78.10;;;;;;5052857;28;20176;-76
2023/04/03 00:18:40;;;;;;;0.70;0.70;;;9.10;78.40;;;;;;5052503;28;20187;-75
2023/04/03 00:21:06;;;;;;;1.10;1.00;;;9.10;78.40;;;;;;5052658;28;20192;-76
2023/04/03 00:23:32;;;;;;;1.67;0.70;;;9.00;78.50;;;;;;5053882;28;20237;-75
2023/04/03 00:25:58;;;;;;;1.40;1.10;;;9.00;78.50;;;;;;5053107;28;20653;-75
2023/04/03 00:28:24;;;;;;;1.13;1.13;;;9.00;78.70;;;;;;5055927;28;20207;-75
2023/04/03 00:30:50;;;;;;;1.67;1.03;;;9.00;78.70;;;;;;5052451;28;20187;-75
2023/04/03 00:33:16;;;;;;;1.07;1.07;;;8.90;78.40;;;;;;5055306;28;20171;-75
2023/04/03 00:35:42;;;;;;;1.37;1.30;;;8.90;78.50;;;;;;5054224;28;21138;-76
2023/04/03 00:38:08;;;;;;;1.43;1.27;;;8.90;78.50;;;;;;5054207;28;20163;-73
2023/04/03 00:40:41;;;;;;;0.97;0.93;;;8.80;78.50;;;;;;5054270;28;20888;-75
2023/04/03 00:43:20;;;;;;;0.83;0.83;;;8.80;78.40;;;;;;5054584;28;20553;-75
2023/04/03 00:45:48;;;;;;;0.70;0.70;;;8.80;78.60;;;;;;5054850;28;20716;-76
2023/04/03 00:48:19;;;;;;;0.67;0.67;;;8.80;79.20;;;;;;5057367;28;20190;-75
2023/04/03 00:50:46;;;;;;;1.03;1.03;;;8.80;79.40;;;;;;5051808;28;20188;-76
2023/04/03 00:53:17;;;;;;;1.40;1.00;;;8.70;79.50;;;;;;5055150;28;20895;-76
2023/04/03 00:55:43;;;;;;;0.70;0.63;;;8.70;79.50;;;;;;5054177;28;20197;-75
2023/04/03 00:58:11;;;;;;;1.20;1.10;;;8.70;79.50;;;;;;5056606;28;20176;-75
2023/04/03 01:00:41;;;;;;;1.07;0.93;;;8.70;79.40;;;;;;5055465;28;20187;-76
2023/04/03 01:03:07;;;;;;;2.70;1.20;;;8.70;79.70;;;;;;5053633;28;20179;-75
2023/04/03 01:05:33;;;;;;;2.07;1.30;;;;;;;;;;5058069;28;20207;-76
2023/04/03 01:08:00;;;;;;;1.60;1.50;;;8.60;79.90;;;;;;5054244;28;20245;-76
2023/04/03 01:10:26;;;;;;;1.03;1.03;;;8.60;80.20;;;;;;5057166;28;20375;-76
2023/04/03 01:12:51;;;;;;;1.17;1.10;;;8.50;80.30;;;;;;5057010;28;20176;-76
2023/04/03 01:15:23;;;;;;;1.17;1.17;;;8.40;80.70;;;;;;5052749;28;20246;-76
2023/04/03 01:17:57;;;;;;;0.97;0.97;;;8.40;81.30;;;;;;5055936;28;20203;-75
2023/04/03 01:20:35;;;;;;;0.80;0.80;;;8.40;81.40;;;;;;5053787;28;20183;-76
2023/04/03 01:23:10;;;;;;;0.73;0.73;;;8.40;81.40;;;;;;5049702;28;20176;-76
2023/04/03 01:25:40;;;;;;;1.37;1.00;;;8.40;81.40;;;;;;5054378;28;20218;-75
2023/04/03 01:28:09;;;;;;;0.53;0.47;;;8.30;81.40;;;;;;5051795;28;20186;-76
2023/04/03 01:30:46;;;;;;;1.03;0.60;;;8.30;81.30;;;;;;5052598;28;20176;-75
2023/04/03 01:33:11;;;;;;;0.50;0.50;;;8.30;81.40;;;;;;5054560;28;20184;-76
2023/04/03 01:35:37;;;;;;;0.43;0.43;;;8.30;81.30;;;;;;5052429;28;20255;-75
2023/04/03 01:38:03;;;;;;;0.40;0.40;;;8.30;81.30;;;;;;5057565;28;20179;-75
2023/04/03 01:40:29;;;;;;;0.33;0.33;;;8.30;81.20;;;;;;5050874;28;20691;-76
2023/04/03 01:42:55;;;;;;;0.40;0.40;;;8.20;81.20;;;;;;5055393;28;20653;-76
2023/04/03 01:45:20;;;;;;;0.40;0.40;;;8.10;81.90;;;;;;5053531;28;20259;-75
2023/04/03 01:47:46;;;;;;;0.40;0.40;;;8.00;82.10;;;;;;5062158;28;20258;-76
2023/04/03 01:50:12;;;;;;;0.70;0.70;;;7.90;82.20;;;;;;5053201;28;20191;-75
2023/04/03 01:52:37;;;;;;;0.57;0.57;;;7.90;82.30;;;;;;5058335;28;20187;-75
2023/04/03 01:55:03;;;;;;;0.43;0.43;;;7.80;82.70;;;;;;5050326;28;20187;-75
2023/04/03 01:57:29;;;;;;;0.77;0.40;;;7.70;82.90;;;;;;5057462;28;20184;-75
2023/04/03 01:59:55;;;;;;;0.37;0.33;;;7.80;82.50;;;;;;5058437;28;21719;-76
2023/04/03 02:02:20;;;;;;;0.60;0.60;;;7.70;82.70;;;;;;5059031;28;20266;-76
2023/04/03 02:04:46;;;;;;;1.30;0.40;;;7.70;82.70;;;;;;5056124;28;20282;-76
2023/04/03 02:07:12;;;;;;;0.53;0.50;;;7.60;83.10;;;;;;5055102;28;20183;-76
2023/04/03 02:09:37;;;;;;;1.07;0.97;;;7.60;83.10;;;;;;5055224;28;20211;-76
2023/04/03 02:12:03;;;;;;;0.40;0.40;;;7.70;82.70;;;;;;5052122;28;20571;-76
2023/04/03 02:14:29;;;;;;;0.27;0.27;;;7.70;82.60;;;;;;5055647;28;20262;-75
2023/04/03 02:16:55;;;;;;;0.30;0.30;;;7.70;82.50;;;;;;5053882;28;20250;-76
2023/04/03 02:19:20;;;;;;;1.40;0.40;;;7.80;82.40;;;;;;5053328;28;20352;-75
2023/04/03 02:21:46;;;;;;;0.30;0.30;;;7.70;82.80;;;;;;5051592;28;20183;-76
2023/04/03 02:24:11;;;;;;;0.40;0.40;;;7.70;82.90;;;;;;5058187;28;20179;-76
2023/04/03 02:26:37;;;;;;;3.70;0.73;;;7.70;82.60;;;;;;5051740;28;20250;-76
2023/04/03 02:29:03;;;;;;;0.60;0.60;;;7.60;82.70;;;;;;5053241;28;20660;-76
2023/04/03 02:31:28;;;;;;;0.50;0.50;;;7.60;82.80;;;;;;5051709;28;20587;-76
2023/04/03 02:33:54;;;;;;;0.50;0.50;;;7.60;82.90;;;;;;5054487;28;20250;-76
2023/04/03 02:36:20;;;;;;;0.30;0.30;;;7.50;83.20;;;;;;5054406;28;20191;-76
2023/04/03 02:38:45;;;;;;;0.40;0.40;;;7.50;83.30;;;;;;5058918;28;20184;-75
2023/04/03 02:41:12;;;;;;;0.53;0.43;;;7.50;83.40;;;;;;5053249;28;20179;-75
2023/04/03 02:43:38;;;;;;;0.73;0.60;;;7.50;83.50;;;;;;5050018;28;20211;-75
2023/04/03 02:46:05;;;;;;;0.40;0.40;;;7.40;83.40;;;;;;5053152;28;20218;-75
2023/04/03 02:48:31;;;;;;;0.77;0.50;;;7.40;83.60;;;;;;5053367;28;20180;-76
2023/04/03 02:50:56;;;;;;;0.60;0.60;;;7.40;83.40;;;;;;5055422;28;20190;-76
2023/04/03 02:53:22;;;;;;;0.43;0.43;;;7.40;83.40;;;;;;5050473;28;20188;-76
2023/04/03 02:55:48;;;;;;;0.50;0.50;;;7.30;83.40;;;;;;5054299;28;20258;-76
2023/04/03 02:58:14;;;;;;;3.17;1.00;;;7.20;83.80;;;;;;5053393;28;20302;-75
2023/04/03 03:00:40;;;;;;;0.57;0.57;;;7.20;84.20;;;;;;5053554;28;20213;-74
2023/04/03 03:03:06;;;;;;;0.33;0.33;;;7.10;84.40;;;;;;5052957;28;20185;-75
2023/04/03 03:05:32;;;;;;;0.60;0.60;;;7.10;84.40;;;;;;5048435;28;20210;-75
2023/04/03 03:07:58;;;;;;;0.37;0.37;;;7.10;84.70;;;;;;5050598;28;20187;-75
2023/04/03 03:10:24;;;;;;;0.80;0.80;;;7.10;84.60;;;;;;5048985;28;20172;-75
2023/04/03 03:12:49;;;;;;;1.37;0.70;;;7.10;84.50;;;;;;5050643;28;20180;-74
2023/04/03 03:15:17;;;;;;;0.40;0.40;;;7.10;84.50;;;;;;5049937;28;20599;-75
2023/04/03 03:17:43;;;;;;;1.23;0.60;;;7.10;84.50;;;;;;5054485;28;20580;-75
2023/04/03 03:20:09;;;;;;;1.67;0.67;;;7.10;84.60;;;;;;5051497;28;20206;-75
2023/04/03 03:22:35;;;;;;;0.77;0.77;;;7.10;84.80;;;;;;5053949;28;20175;-75
2023/04/03 03:25:02;;;;;;;0.50;0.50;;;7.10;84.90;;;;;;5046637;28;20204;-75
2023/04/03 03:27:28;;;;;;;0.57;0.57;;;7.10;84.90;;;;;;5054880;28;20229;-75
2023/04/03 03:29:54;;;;;;;0.40;0.40;;;7.10;84.80;;;;;;5053470;28;20256;-75
2023/04/03 03:32:20;;;;;;;1.13;0.33;;;7.10;84.60;;;;;;5050569;28;20649;-72
2023/04/03 03:34:45;;;;;;;0.40;0.40;;;7.10;84.60;;;;;;5052578;28;20180;-75
2023/04/03 03:37:11;;;;;;;0.67;0.50;;;7.00;84.60;;;;;;5050524;28;20176;-75
2023/04/03 03:39:37;;;;;;;0.50;0.50;;;7.00;84.60;;;;;;5049921;28;20179;-75
2023/04/03 03:42:03;;;;;;;0.47;0.47;;;7.10;84.70;;;;;;5047471;28;20190;-75
2023/04/03 03:44:29;;;;;;;0.30;0.30;;;7.10;84.60;;;;;;5048668;28;20195;-76
2023/04/03 03:46:56;;;;;;;0.70;0.70;;;7.10;84.70;;;;;;5050448;28;20195;-75
2023/04/03 03:49:22;;;;;;;0.43;0.43;;;7.10;84.80;;;;;;5052128;28;20886;-75
2023/04/03 03:51:48;;;;;;;0.67;0.67;;;7.00;84.90;;;;;;5049212;28;20262;-75
2023/04/03 03:54:14;;;;;;;1.60;0.83;;;7.00;84.80;;;;;;5052438;28;20180;-76
2023/04/03 03:56:39;;;;;;;1.13;0.63;;;7.00;84.70;;;;;;5052954;28;20206;-76
2023/04/03 03:59:05;;;;;;;1.47;0.77;;;7.00;84.70;;;;;;5054931;28;20211;-76
2023/04/03 04:01:31;;;;;;;0.60;0.60;;;7.00;84.80;;;;;;5052921;28;20229;-76
2023/04/03 04:03:57;;;;;;;0.90;0.80;;;6.90;84.80;;;;;;5053323;28;20171;-77
2023/04/03 04:06:22;;;;;;;1.53;0.63;;;6.90;84.80;;;;;;5050546;28;20689;-76
2023/04/03 04:08:49;;;;;;;0.97;0.97;;;6.90;84.90;;;;;;5053034;28;20260;-75
2023/04/03 04:11:15;;;;;;;0.90;0.90;;;6.90;85.00;;;;;;5054637;28;20171;-75
2023/04/03 04:13:40;;;;;;;0.97;0.80;;;6.80;85.00;;;;;;5050662;28;20556;-75
2023/04/03 04:16:07;;;;;;;1.80;1.27;;;6.80;85.00;;;;;;5055403;28;20262;-75
2023/04/03 04:18:33;;;;;;;1.13;1.13;;;6.80;85.30;;;;;;5051942;28;20176;-75
2023/04/03 04:20:59;;;;;;;1.50;0.70;;;6.70;85.30;;;;;;5054051;28;20179;-75
2023/04/03 04:23:25;;;;;;;1.10;0.97;;;6.70;85.70;;;;;;5057046;28;20176;-75
2023/04/03 04:25:51;;;;;;;0.60;0.60;;;6.70;85.90;;;;;;5053882;28;20209;-75
2023/04/03 04:28:17;;;;;;;1.13;1.03;;;6.70;85.90;;;;;;5053987;28;20175;-75
2023/04/03 04:30:43;;;;;;;2.23;1.20;;;6.70;85.90;;;;;;5050631;28;20179;-75
2023/04/03 04:33:08;;;;;;;3.00;0.87;;;6.70;85.90;;;;;;5052083;28;20227;-76
2023/04/03 04:35:34;;;;;;;1.90;0.77;;;6.80;85.80;;;;;;5051193;28;20198;-77
2023/04/03 04:38:00;;;;;;;0.80;0.73;;;6.80;85.80;;;;;;5054319;28;20187;-75
2023/04/03 04:40:26;;;;;;;0.93;0.93;;;6.90;85.80;;;;;;5051474;28;20738;-76
2023/04/03 04:42:52;;;;;;;0.80;0.80;;;6.90;85.60;;;;;;5045094;28;20191;-76
2023/04/03 04:45:18;;;;;;;1.37;1.00;;;7.00;85.40;;;;;;5055102;28;20568;-76
2023/04/03 04:47:43;;;;;;;0.97;0.97;;;6.90;85.10;;;;;;5052113;28;20190;-77
2023/04/03 04:50:09;;;;;;;1.50;1.40;;;6.90;85.50;;;;;;5053244;28;20219;-76
2023/04/03 04:52:35;;;;;;;1.57;1.47;;;7.00;85.20;;;;;;5053544;28;20180;-75
2023/04/03 04:55:01;;;;;;;1.30;0.73;;;7.10;85.10;;;;;;5053814;28;20592;-74
2023/04/03 04:57:26;;;;;;;1.33;1.30;;;7.10;85.40;;;;;;5059007;28;20172;-75
2023/04/03 04:59:52;;;;;;;1.33;1.23;;;7.10;85.00;;;;;;5050595;28;20187;-76
2023/04/03 05:02:18;;;;;;;0.90;0.90;;;7.20;85.20;;;;;;5061140;28;20183;-75
2023/04/03 05:04:44;;;;;;;7.83;1.30;;;7.20;85.00;;;;;;5049291;28;20310;-75
2023/04/03 05:07:10;;;;;;;0.87;0.87;;;7.20;84.50;;;;;;5056760;28;20254;-76
2023/04/03 05:09:35;;;;;;;1.17;1.17;;;7.30;84.40;;;;;;5053775;28;20182;-77
2023/04/03 05:12:02;;;;;;;1.60;1.20;;;7.40;84.50;;;;;;5051663;28;20684;-72
2023/04/03 05:14:28;;;;;;;0.73;0.73;;;7.40;84.60;;;;;;5055842;28;20182;-72
2023/04/03 05:16:54;;;;;;;1.53;1.43;;;7.40;84.60;;;;;;5054207;28;20176;-74
2023/04/03 05:19:21;;;;;;;1.40;1.40;;;7.50;84.10;;;;;;5056052;28;20180;-75
2023/04/03 05:21:47;;;;;;;1.30;1.30;;;7.50;84.00;;;;;;5057917;28;20179;-74
2023/04/03 05:24:13;;;;;;;2.63;0.93;;;7.60;83.60;;;;;;5057403;28;20179;-75
2023/04/03 05:26:39;;;;;;;1.33;1.23;;;7.60;83.90;;;;;;5055101;28;20211;-76
2023/04/03 05:29:04;;;;;;;7.23;1.27;;;7.70;84.00;;;;;;5053194;28;20252;-74
2023/04/03 05:31:30;;;;;;;3.90;1.17;;;7.70;83.60;;;;;;5052248;28;20171;-74
2023/04/03 05:33:56;;;;;;;1.07;0.93;;;7.80;83.80;;;;;;5061146;28;20644;-74
2023/04/03 05:36:22;;;;;;;2.60;1.93;;;7.90;83.70;;;;;;5056001;28;20188;-74
2023/04/03 05:38:47;;;;;;;3.73;1.77;;;7.90;83.60;;;;;;5059991;28;20184;-78
2023/04/03 05:41:14;;;;;;;1.87;1.77;;;8.00;83.30;;;;;;5053511;28;20232;-78
2023/04/03 05:43:40;;;;;;;1.33;1.33;;;8.00;83.50;;;;;;5053755;28;20194;-77
2023/04/03 05:46:15;;;;;;;1.77;1.67;;;8.10;83.30;;;;;;5053521;28;20218;-75
2023/04/03 05:48:40;;;;;;;2.40;1.67;;;8.20;83.20;;;;;;5057924;28;20652;-73
2023/04/03 05:51:12;;;;;;;1.80;1.70;;;8.30;83.20;;;;;;5055349;28;20183;-73
2023/04/03 05:53:38;;;;;;;6.27;1.73;;;8.30;83.10;;;;;;5059834;28;20274;-74
2023/04/03 05:56:04;;;;;;;5.10;2.10;;;8.40;82.90;;;;;;5052661;28;20262;-73
2023/04/03 05:58:30;;;;;;;1.73;1.73;;;8.50;82.80;;;;;;5052585;28;20186;-73
2023/04/03 06:00:57;;;;;;;2.30;2.03;;;8.50;82.50;;;;;;5057115;28;20187;-73
2023/04/03 06:03:23;;;;;;;1.53;1.43;;;;;;;;;;5054961;28;20187;-73
2023/04/03 06:05:48;;;;;;;1.70;1.57;;;8.70;82.30;;;;;;5057035;28;20704;-73
2023/04/03 06:08:14;;;;;;;2.93;2.60;;;8.80;82.10;;;;;;5053478;28;20176;-74
2023/04/03 06:10:40;;;;;;;5.47;3.33;;;8.90;82.20;;;;;;5056548;28;20313;-73
2023/04/03 06:13:07;;;;;;;2.73;2.43;;;8.90;81.60;;;;;;5052396;28;20540;-73
2023/04/03 06:15:33;;;;;;;2.60;2.33;;;9.00;81.20;;;;;;5054351;28;20186;-74
2023/04/03 06:17:59;;;;;;;7.57;2.83;;;9.10;80.70;;;;;;5055908;28;20171;-73
2023/04/03 06:20:25;;;;;;;2.33;1.70;;;9.10;80.50;;;;;;5052242;28;20656;-73
2023/04/03 06:22:51;;;;;;;2.70;1.93;;;9.10;80.30;;;;;;5053974;28;20187;-73
2023/04/03 06:25:18;;;;;;;3.83;3.03;;;9.10;80.20;;;;;;5056244;28;20209;-73
2023/04/03 06:27:44;;;;;;;1.77;1.73;;;9.00;80.10;;;;;;5053452;28;20176;-73
2023/04/03 06:30:11;;;;;;;1.30;1.30;;;8.90;80.30;;;;;;5056121;28;20184;-73
2023/04/03 06:32:37;;;;;;;2.23;1.20;;;9.00;80.20;;;;;;5054838;28;20180;-74
2023/04/03 06:35:04;;;;;;;1.20;1.20;;;9.20;80.20;;;;;;5059212;28;20167;-74
2023/04/03 06:37:30;;;;;;;2.57;1.30;;;9.40;79.70;;;;;;5059300;28;20582;-74
2023/04/03 06:39:56;;;;;;;1.47;1.37;;;9.50;79.40;;;;;;5052174;28;20180;-73
2023/04/03 06:42:22;;;;;;;1.53;1.43;;;9.70;78.80;;;;;;5048385;28;20192;-74
2023/04/03 06:44:48;;;;;;;2.90;1.93;;;9.80;78.70;;;;;;5055352;28;20210;-74
2023/04/03 06:47:14;;;;;;;1.80;1.57;;;9.90;78.40;;;;;;5049227;28;20640;-74
2023/04/03 06:49:41;;;;;;;1.93;1.83;;;10.00;78.20;;;;;;5054549;28;20241;-74
2023/04/03 06:52:07;;;;;;;2.37;1.53;;;10.10;78.10;;;;;;5052231;28;20254;-74
2023/04/03 06:54:33;;;;;;;2.03;1.90;;;10.20;77.70;;;;;;5048372;28;20175;-73
2023/04/03 06:56:59;;;;;;;1.67;1.57;;;10.40;77.40;;;;;;5047136;28;20214;-73
2023/04/03 06:59:25;;;;;;;3.50;2.80;;;10.40;76.70;;;;;;5052594;28;20179;-73
2023/04/03 07:01:51;;;;;;;1.80;1.70;;;10.40;76.70;;;;;;5053873;28;20205;-74
2023/04/03 07:04:19;;;;;;;1.52;1.52;;;10.30;76.70;;;;;;5053914;28;20752;-74
2023/04/03 07:06:44;;;;;;;1.70;1.60;;;10.40;76.50;;;;;;5049582;28;20220;-74
2023/04/03 07:09:10;;;;;;;1.92;1.83;;;10.40;76.50;;;;;;5048141;28;20183;-71
2023/04/03 07:11:36;;;;;;;2.40;1.65;;;10.50;76.60;;;;;;5053039;28;20176;-73
2023/04/03 07:14:03;;;;;;;1.88;1.77;;;10.60;76.40;;;;;;5051328;28;20168;-73
2023/04/03 07:16:30;;;;;;;1.70;1.60;;;10.70;76.30;;;;;;5050377;28;20198;-73
2023/04/03 07:18:57;;;;;;;1.60;1.50;;;10.70;76.00;;;;;;5054167;28;20206;-76
2023/04/03 07:21:22;;;;;;;1.98;1.88;;;10.60;76.20;;;;;;5045484;28;20195;-74
2023/04/03 07:23:48;;;;;;;2.13;1.92;;;10.60;76.30;;;;;;5050670;28;20183;-73
2023/04/03 07:26:14;;;;;;;2.50;2.33;;;10.50;76.50;;;;;;5048537;28;20293;-73
2023/04/03 07:28:41;;;;;;;5.93;2.50;;;10.60;76.20;;;;;;5045364;28;20187;-74
2023/04/03 07:31:13;;;;;;;3.15;2.90;;;10.60;76.40;;;;;;5067446;28;20179;-75
2023/04/03 07:33:39;;;;;;;3.45;3.15;;;10.70;76.00;;;;;;5050285;28;20190;-75
2023/04/03 07:36:07;;;;;;;2.08;1.85;;;10.70;76.30;;;;;;5045800;28;20183;-75
2023/04/03 07:38:33;;;;;;;2.05;1.35;;;10.70;76.30;;;;;;5047397;28;20187;-75
2023/04/03 07:40:59;;;;;;;2.22;1.80;;;10.80;76.20;;;;;;5051581;28;20183;-75
2023/04/03 07:43:25;;;;;;;1.52;1.42;;;10.90;76.00;;;;;;5049233;28;20180;-74
2023/04/03 07:45:51;;;;;;;2.83;1.35;;;11.10;75.80;;;;;;5043780;28;20211;-76
2023/04/03 07:48:20;;;;;;;2.33;1.13;;;11.60;74.80;;;;;;5045206;28;20267;-78
2023/04/03 07:50:46;;;;;;;1.73;1.08;;;11.60;74.70;;;;;;5051655;28;20187;-77
2023/04/03 07:53:11;;;;;;;1.48;1.48;;;11.70;74.10;;;;;;5049568;28;20187;-73
2023/04/03 07:55:42;;;;;;;2.80;1.42;;;12.00;74.00;;;;;;5046554;28;20191;-73
2023/04/03 07:58:10;;;;;;;2.13;1.23;;;12.10;73.60;;;;;;5053616;28;20917;-74
2023/04/03 08:00:36;;;;;;;1.17;1.17;;;12.30;72.70;;;;;;5048270;28;20175;-74
2023/04/03 08:03:02;;;;;;;1.60;1.50;;;12.50;72.50;;;;;;5051449;28;20236;-73
2023/04/03 08:05:27;;;;;;;2.35;2.05;;;12.60;72.30;;;;;;5050910;28;20566;-74
2023/04/03 08:07:53;;;;;;;3.20;2.50;;;12.70;71.70;;;;;;5050853;28;20233;-73
2023/04/03 08:10:19;;;;;;;3.65;3.35;;;12.90;71.40;;;;;;5053688;28;20242;-73
2023/04/03 08:12:46;;;;;;;3.40;3.15;;;12.90;71.70;;;;;;5054206;28;20195;-73
2023/04/03 08:15:12;;;;;;;6.38;4.00;;;13.00;71.40;;;;;;5045719;28;20595;-73
2023/04/03 08:17:38;;;;;;;5.20;3.83;;;13.10;71.30;;;;;;5050337;28;20198;-73
2023/04/03 08:20:07;;;;;;;3.80;3.55;;;13.20;70.80;;;;;;5052263;28;20199;-74
2023/04/03 08:22:34;;;;;;;4.07;3.72;;;13.20;70.40;;;;;;5050781;28;20618;-74
2023/04/03 08:25:01;;;;;;;4.05;3.72;;;13.30;70.40;;;;;;5051960;28;20689;-74
2023/04/03 08:27:27;;;;;;;6.20;4.53;;;13.30;69.70;;;;;;5056757;28;20175;-74
2023/04/03 08:29:52;;;;;;;5.00;3.88;;;13.30;69.90;;;;;;5057887;28;20179;-74
2023/04/03 08:32:18;;;;;;;6.40;4.38;;;13.30;69.90;;;;;;5053924;28;20191;-73
2023/04/03 08:34:44;;;;;;;5.25;4.10;;;13.30;70.40;;;;;;5053050;28;20181;-73
2023/04/03 08:37:10;;;;;;;10.13;3.95;;;13.40;70.30;;;;;;5056134;28;20183;-74
2023/04/03 08:39:36;;;;;;;4.90;4.47;;;13.50;69.90;;;;;;5051718;28;20621;-73
2023/04/03 08:42:12;;;;;;;7.20;4.82;;;13.60;69.60;;;;;;5050858;28;20180;-74
2023/04/03 08:45:05;;;;;;;7.78;4.18;;;13.80;69.20;;;;;;5053341;28;20199;-73
2023/04/03 08:47:33;;;;;;;7.57;4.10;;;13.90;68.80;;;;;;5058764;28;20191;-74
2023/04/03 08:50:02;;;;;;;9.65;5.05;;;14.10;68.80;;;;;;5055153;28;20175;-74
2023/04/03 08:52:55;;;;;;;6.63;4.55;;;14.20;68.50;;;;;;5053085;28;20653;-74
2023/04/03 08:55:39;;;;;;;11.00;5.60;;;14.30;68.40;;;;;;5053667;28;20207;-74
2023/04/03 08:58:11;;;;;;;6.22;5.32;;;14.40;68.20;;;;;;5055218;28;20650;-73
2023/04/03 09:00:55;;;;;;;11.50;6.68;;;14.50;68.30;;;;;;5054507;28;20594;-73
2023/04/03 09:03:22;;;;;;;9.20;5.82;;;14.70;67.90;;;;;;5054762;28;20179;-75
2023/04/03 09:06:00;;;;;;;6.75;5.78;;;14.80;67.70;;;;;;5055780;28;20685;-73
2023/04/03 09:08:43;;;;;;;7.22;5.63;;;14.90;66.90;;;;;;5055390;28;20183;-72
2023/04/03 09:11:40;;;;;;;6.38;5.22;;;14.80;66.90;;;;;;5054352;28;20195;-72
2023/04/03 09:14:53;;;;;;;6.55;5.15;;;14.70;66.90;;;;;;5051058;28;20187;-73
2023/04/03 09:17:44;;;;;;;5.57;5.05;;;14.60;67.30;;;;;;5028433;28;20184;-75
2023/04/03 09:21:04;;;;;;;6.63;4.90;;;14.60;67.30;;;;;;5025400;28;20585;-74
2023/04/03 09:23:42;;;;;;;10.18;4.68;;;14.60;67.50;;;;;;4972568;28;20205;-74
2023/04/03 09:26:19;;;;;;;7.25;5.05;;;14.60;67.30;;;;;;4960408;28;20233;-74
2023/04/03 09:28:45;;;;;;;4.80;4.05;;;14.70;67.60;;;;;;4963907;28;20358;-77
2023/04/03 09:31:24;;;;;;;3.17;3.08;;;14.70;67.70;;;;;;4961438;28;20242;-78
2023/04/03 09:34:02;;;;;;;3.58;3.35;;;14.90;67.10;;;;;;4961380;28;20224;-80
2023/04/03 09:36:51;;;;;;;3.22;2.95;;;15.00;67.10;;;;;;4966104;28;20205;-79
2023/04/03 09:39:24;;;;;;;2.67;2.58;;;15.10;66.50;;;;;;4955484;28;20187;-75
2023/04/03 09:42:16;;;;;;;3.20;3.00;;;15.20;65.70;;;;;;4969240;28;20205;-75
2023/04/03 09:44:42;;;;;;;3.08;2.88;;;15.20;65.70;;;;;;4969759;28;20340;-73
2023/04/03 09:47:27;;;;;;;6.32;2.95;;;15.30;66.20;;;;;;4972987;28;20284;-72
2023/04/03 09:50:19;;;;;;;5.72;2.30;;;15.40;66.40;;;;;;4970418;28;20213;-74
2023/04/03 09:52:47;;;;;;;4.60;1.83;;;15.60;65.20;;;;;;4972185;28;20194;-74
2023/04/03 09:55:27;;;;;;;4.45;2.47;;;15.70;64.80;;;;;;5040165;28;20206;-74
2023/04/03 09:57:53;;;;;;;2.22;2.13;;;15.80;64.40;;;;;;5052757;28;20171;-74
2023/04/03 10:00:22;;;;;;;2.45;2.17;;;15.80;64.00;;;;;;5054902;28;20179;-74
2023/04/03 10:02:52;;;;;;;3.63;3.33;;;15.80;65.00;;;;;;5056000;28;20172;-75
2023/04/03 10:05:44;;;;;;;2.85;2.55;;;15.60;65.00;;;;;;5067615;28;20215;-73
2023/04/03 10:08:17;;;;;;;2.75;2.55;;;15.30;64.80;;;;;;5053601;28;20222;-74
2023/04/03 10:10:48;;;;;;;3.42;2.83;;;15.10;65.40;;;;;;5054758;28;20344;-73
2023/04/03 10:13:23;;;;;;;6.63;3.35;;;15.00;66.40;;;;;;5052149;28;20195;-73
2023/04/03 10:15:55;;;;;;;2.20;2.10;;;14.90;66.90;;;;;;5049319;28;20243;-74
2023/04/03 10:18:40;;;;;;;2.67;2.30;;;14.70;66.60;;;;;;5054468;28;20388;-74
2023/04/03 10:21:23;;;;;;;2.58;2.47;;;14.60;66.90;;;;;;5043935;28;20215;-74
2023/04/03 10:23:59;;;;;;;2.97;2.58;;;14.60;67.20;;;;;;5050634;28;20190;-74
2023/04/03 10:26:37;;;;;;;3.88;2.42;;;14.50;67.60;;;;;;5043375;28;20226;-74
2023/04/03 10:29:52;;;;;;;3.38;2.55;;;14.40;68.70;;;;;;5050102;28;20183;-74
2023/04/03 10:32:33;;;;;;;3.47;2.70;;;14.30;68.70;;;;;;5009569;28;20181;-74
2023/04/03 10:35:25;;;;;;;3.67;3.13;;;14.30;68.80;;;;;;5009182;28;20237;-74
2023/04/03 10:38:04;;;;;;;2.70;2.58;;;14.30;68.10;;;;;;5013392;28;20196;-74
2023/04/03 10:40:36;;;;;;;2.45;2.33;;;14.20;68.50;;;;;;5005652;28;20193;-74
2023/04/03 10:43:08;;;;;;;5.82;2.58;;;14.30;69.20;;;;;;5007084;28;20192;-78
2023/04/03 10:46:06;;;;;;;4.63;2.40;;;14.30;68.70;;;;;;5003512;28;20363;-75
2023/04/03 10:48:52;;;;;;;2.17;2.08;;;14.20;69.40;;;;;;5005587;28;20200;-77
2023/04/03 10:51:43;;;;;;;1.88;1.77;;;14.10;68.60;;;;;;5008035;28;20185;-74
2023/04/03 10:54:26;;;;;;;1.65;1.65;;;14.00;68.30;;;;;;5011231;28;20189;-75
2023/04/03 10:57:03;;;;;;;1.58;1.48;;;13.90;69.50;;;;;;5008382;28;20192;-75
2023/04/03 10:59:35;;;;;;;2.40;1.10;;;13.90;68.50;;;;;;5011386;28;20188;-77
2023/04/03 11:02:23;;;;;;;1.05;1.02;;;13.80;68.60;;;;;;5010334;28;20184;-77
2023/04/03 11:04:55;;;;;;;1.00;1.00;;;13.70;68.80;;;;;;4984556;28;20208;-78
2023/04/03 11:07:26;;;;;;;0.75;0.73;;;13.50;68.90;;;;;;5041018;28;20293;-75
2023/04/03 11:10:09;;;;;;;4.05;1.13;;;13.40;68.80;;;;;;5043062;28;20203;-75
2023/04/03 11:13:10;;;;;;;0.82;0.82;;;13.40;70.10;;;;;;5037497;28;21814;-75
2023/04/03 11:15:36;;;;;;;0.63;0.63;;;13.20;70.20;;;;;;5035601;28;20267;-78
2023/04/03 11:18:08;;;;;;;0.65;0.65;;;13.30;70.20;;;;;;5059322;28;20842;-75
2023/04/03 11:20:37;;;;;;;0.77;0.77;;;13.10;71.10;;;;;;5056663;28;20257;-75
2023/04/03 11:23:24;;;;;;;0.57;0.57;;;12.90;73.60;;;;;;5061886;28;20285;-74
2023/04/03 11:25:53;;;;;;;0.65;0.65;;;12.80;73.40;;;;;;5047743;28;20226;-75
2023/04/03 11:28:19;;;;;;;0.70;0.70;;;12.70;73.90;;;;;;5063608;28;20227;-74
2023/04/03 11:31:06;;;;;;;0.50;0.43;;;12.60;76.10;;;;;;5058132;28;20194;-73
2023/04/03 11:33:44;;;;;;;1.20;0.75;;;12.50;78.20;;;;;;5060991;28;20722;-74
2023/04/03 11:36:27;;;;;;;0.70;0.70;;;12.50;78.30;;;;;;5059339;28;20191;-74
2023/04/03 11:38:57;;;;;;;0.70;0.70;;;12.50;79.80;;;;;;5046709;28;20732;-74
2023/04/03 11:41:29;;;;;;;0.50;0.50;;;12.40;80.60;;;;;;5044633;28;20261;-74
2023/04/03 11:44:05;;;;;;;0.70;0.70;;;12.30;82.50;;;;;;5060234;28;20191;-74
2023/04/03 11:46:57;;;;;;;1.42;0.77;;;12.30;81.30;;;;;;5066198;28;20213;-74
2023/04/03 11:49:53;;;;;;;0.50;0.50;;;12.10;82.00;;;;;;5063786;28;20179;-74
2023/04/03 11:52:38;;;;;;;0.80;0.52;;;12.10;82.90;;;;;;5054822;28;20221;-74
2023/04/03 11:55:29;;;;;;;1.65;0.60;;;11.90;83.30;;;;;;5047851;28;20176;-74
2023/04/03 11:57:58;;;;;;;0.65;0.65;;;11.90;83.90;;;;;;5052786;28;20203;-74
2023/04/03 12:00:50;;;;;;;2.03;0.77;;;11.80;83.90;;;;;;5051710;28;20203;-74
2023/04/03 12:06:32;;;;;;;0.70;0.70;;;11.70;85.30;;;;;;5053139;28;20244;-75
2023/04/03 12:08:58;;;;;;;0.60;0.60;;;11.50;85.60;;;;;;5060880;28;20765;-74
2023/04/03 12:11:32;;;;;;;0.40;0.40;;;11.40;86.70;;;;;;5060843;28;20191;-74
2023/04/03 12:13:57;;;;;;;1.45;0.47;;;11.40;86.80;;;;;;5059613;28;20182;-74
2023/04/03 12:16:38;;;;;;;0.40;0.40;;;11.30;87.70;;;;;;5060366;28;20194;-74
2023/04/03 12:19:35;;;;;;;0.50;0.50;;;11.10;87.70;;;;;;5062262;28;20198;-74
2023/04/03 12:22:01;;;;;;;0.60;0.60;;;10.90;89.30;;;;;;5043709;28;20216;-74
2023/04/03 12:24:28;;;;;;;0.40;0.40;;;10.90;89.50;;;;;;5062315;28;20202;-74
2023/04/03 12:26:58;;;;;;;0.40;0.40;;;10.80;90.50;;;;;;5061598;28;20211;-74
2023/04/03 12:29:38;;;;;;;0.55;0.55;;;10.80;90.70;;;;;;5044754;28;20185;-74
2023/04/03 12:32:32;;;;;;;0.47;0.47;;;10.80;91.90;;;;;;5060835;28;20183;-74
2023/04/03 12:35:17;;;;;;;0.57;0.50;;;10.90;92.30;;;;;;5059768;28;20652;-74
2023/04/03 12:38:09;;;;;;;0.50;0.50;;;10.90;92.30;;;;;;5061266;28;20597;-75
2023/04/03 12:40:46;;;;;;;0.20;0.20;;;10.80;91.80;;;;;;5059824;28;21069;-74
2023/04/03 12:43:30;;;;;;;0.50;0.50;;;10.80;93.00;;;;;;5059598;28;20273;-74
2023/04/03 12:46:04;;;;;;;0.43;0.43;;;10.80;93.70;;;;;;5047094;28;20273;-74
2023/04/03 12:48:33;;;;;;;1.52;0.40;;;10.80;93.90;;;;;;5054972;28;20245;-74
2023/04/03 12:51:00;;;;;;;1.27;0.65;;;10.80;93.60;;;;;;5045383;28;20184;-74
2023/04/03 12:53:30;;;;;;;0.60;0.60;;;10.90;93.60;;;;;;5053865;28;20225;-74
2023/04/03 12:56:21;;;;;;;0.55;0.55;;;10.90;93.70;;;;;;5044865;28;20194;-74
2023/04/03 12:58:47;;;;;;;0.53;0.53;;;10.90;93.90;;;;;;5050853;28;20194;-74
2023/04/03 13:01:18;;;;;;;0.65;0.65;;;10.90;94.00;;;;;;5049738;28;20183;-75
2023/04/03 13:03:46;;;;;;;0.50;0.50;;;10.80;93.90;;;;;;5051562;28;20192;-75
2023/04/03 13:06:22;;;;;;;0.55;0.55;;;10.80;94.10;;;;;;5043888;28;20302;-74
2023/04/03 13:08:59;;;;;;;2.27;1.10;;;10.80;94.00;;;;;;5047310;28;20679;-75
2023/04/03 13:11:34;;;;;;;1.35;0.77;;;10.70;94.40;;;;;;5055093;28;20229;-75
2023/04/03 13:14:05;;;;;;;1.25;0.82;;;10.70;94.40;;;;;;5049621;28;20192;-74